Time;durP1;ratioP1;P1;durP2;ratioP2;P2;SDS_P1;SDS_P2;PMS_P1;PMS_P2;Temp;Humidity;BMP_temperature;BMP_pressure;BME280_temperature;BME280_humidity;BME280_pressure;Samples;Min_cycle;Max_cycle;Signal;HPM_P1;HPM_P2
2022/07/22 02:08:15;;;;;;;23.45;14.45;;;;;;;;;;6114571;23;20211;-87
2022/07/22 02:11:46;;;;;;;26.35;14.68;;;;;;;;;;6131723;23;20300;-86
2022/07/22 02:14:54;;;;;;;23.05;15.48;;;;;;;;;;6131282;23;20169;-88
2022/07/22 02:18:02;;;;;;;23.15;14.77;;;;;;;;;;6130760;23;20283;-88
2022/07/22 02:21:07;;;;;;;26.13;15.90;;;;;;;;;;6131285;23;20169;-88
2022/07/22 02:24:14;;;;;;;25.00;15.73;;;;;;;;;;6130675;23;20502;-88
2022/07/22 02:27:19;;;;;;;24.92;14.70;;;;;;;;;;6131213;23;20236;-88
2022/07/22 02:30:24;;;;;;;21.27;13.93;;;;;;;;;;6113202;23;20514;-87
2022/07/22 02:33:30;;;;;;;19.85;13.35;;;;;;;;;;6131622;23;20211;-87
2022/07/22 02:36:36;;;;;;;20.85;13.45;;;;;;;;;;6113140;23;20213;-87
2022/07/22 02:39:43;;;;;;;22.73;13.10;;;;;;;;;;6114604;23;20548;-88
2022/07/22 02:42:48;;;;;;;21.52;12.55;;;;;;;;;;6130513;23;20173;-89
2022/07/22 02:45:54;;;;;;;20.08;13.05;;;;;;;;;;6132201;23;20236;-88
2022/07/22 02:48:59;;;;;;;22.70;13.15;;;;;;;;;;6131901;23;20185;-88
2022/07/22 02:52:05;;;;;;;20.52;13.02;;;;;;;;;;6115698;23;20236;-89
2022/07/22 02:55:12;;;;;;;21.88;13.40;;;;;;;;;;6132295;23;20197;-88
2022/07/22 02:58:17;;;;;;;18.92;12.90;;;;;;;;;;6132391;23;20169;-88
2022/07/22 03:01:24;;;;;;;18.63;12.32;;;;;;;;;;6130503;23;20173;-88
2022/07/22 03:04:33;;;;;;;19.65;13.20;;;;;;;;;;6129822;23;20295;-88
2022/07/22 03:07:38;;;;;;;21.65;13.20;;;;;;;;;;6129945;23;20216;-89
2022/07/22 03:10:47;;;;;;;20.35;13.63;;;;;;;;;;6130255;23;20177;-89
2022/07/22 03:13:52;;;;;;;23.95;13.98;;;;;;;;;;6129818;23;20178;-88
2022/07/22 03:16:58;;;;;;;26.70;13.77;;;;;;;;;;6129487;23;20168;-88
2022/07/22 03:20:04;;;;;;;21.77;13.88;;;;;;;;;;6111715;23;20177;-88
2022/07/22 03:23:09;;;;;;;25.42;13.93;;;;;;;;;;6128850;23;20181;-88
2022/07/22 03:26:18;;;;;;;23.73;13.10;;;;;;;;;;6130558;23;20197;-89
2022/07/22 03:29:23;;;;;;;25.33;14.43;;;;;;;;;;6131036;23;20219;-88
2022/07/22 03:32:28;;;;;;;25.35;14.35;;;;;;;;;;6113611;23;20176;-89
2022/07/22 03:35:35;;;;;;;21.45;13.50;;;;;;;;;;6113735;23;20807;-89
2022/07/22 03:38:40;;;;;;;23.17;15.48;;;;;;;;;;6114923;23;20173;-88
2022/07/22 03:41:47;;;;;;;25.63;14.95;;;;;;;;;;6114643;23;20208;-89
2022/07/22 03:44:52;;;;;;;23.27;14.45;;;;;;;;;;6113720;23;20272;-88
2022/07/22 03:47:59;;;;;;;20.83;13.60;;;;;;;;;;6131204;23;20196;-88
2022/07/22 03:51:07;;;;;;;24.90;14.50;;;;;;;;;;6128554;23;20173;-87
2022/07/22 03:54:13;;;;;;;23.00;14.80;;;;;;;;;;6112095;23;20685;-87
2022/07/22 03:57:22;;;;;;;20.70;14.10;;;;;;;;;;6116271;23;20172;-87
2022/07/22 04:00:36;;;;;;;24.67;14.85;;;;;;;;;;6130067;23;20236;-87
2022/07/22 04:03:44;;;;;;;21.90;14.13;;;;;;;;;;6130603;23;20189;-88
2022/07/22 04:07:00;;;;;;;24.70;14.30;;;;;;;;;;6115027;23;20209;-88
2022/07/22 04:10:11;;;;;;;21.90;14.57;;;;;;;;;;6131594;23;20169;-87
2022/07/22 04:13:22;;;;;;;23.52;14.35;;;;;;;;;;6130788;23;20173;-89
2022/07/22 04:16:32;;;;;;;22.48;14.00;;;;;;;;;;6131474;23;20169;-88
2022/07/22 04:19:43;;;;;;;23.70;14.45;;;;;;;;;;6114960;23;20172;-88
2022/07/22 04:23:03;;;;;;;23.10;14.45;;;;;;;;;;6116263;23;20205;-89
2022/07/22 04:26:08;;;;;;;21.35;13.63;;;;;;;;;;6134902;23;20181;-89
2022/07/22 04:29:15;;;;;;;21.25;13.73;;;;;;;;;;6134329;23;20173;-89
2022/07/22 04:32:20;;;;;;;20.63;13.35;;;;;;;;;;6132453;23;20173;-89
2022/07/22 04:35:25;;;;;;;18.88;13.25;;;;;;;;;;6132331;23;20240;-88
2022/07/22 04:38:47;;;;;;;25.55;13.70;;;;;;;;;;6130766;23;20184;-88
2022/07/22 04:41:52;;;;;;;21.60;13.23;;;;;;;;;;6131656;23;20233;-88
2022/07/22 04:44:59;;;;;;;24.05;13.73;;;;;;;;;;6131479;23;20181;-88
2022/07/22 04:48:05;;;;;;;19.73;13.00;;;;;;;;;;6132258;23;20189;-89
2022/07/22 04:51:10;;;;;;;20.33;12.98;;;;;;;;;;6133920;23;20173;-88
2022/07/22 04:54:16;;;;;;;19.90;13.02;;;;;;;;;;6113367;23;20172;-87
2022/07/22 04:57:23;;;;;;;22.35;13.55;;;;;;;;;;6130962;23;20216;-88
2022/07/22 05:00:31;;;;;;;22.38;13.77;;;;;;;;;;6130574;23;20221;-88
2022/07/22 05:03:38;;;;;;;21.00;13.75;;;;;;;;;;6115299;23;20161;-88
2022/07/22 05:06:44;;;;;;;19.70;13.55;;;;;;;;;;6116453;23;20536;-87
2022/07/22 05:09:49;;;;;;;21.98;14.15;;;;;;;;;;6115956;23;20370;-87
2022/07/22 05:12:55;;;;;;;23.40;13.88;;;;;;;;;;6115745;23;20172;-88
2022/07/22 05:16:05;;;;;;;21.67;14.82;;;;;;;;;;6134266;23;20161;-88
2022/07/22 05:19:12;;;;;;;22.30;14.93;;;;;;;;;;6118370;23;20295;-88
2022/07/22 05:22:26;;;;;;;18.65;13.70;;;;;;;;;;6116286;23;20260;-89
2022/07/22 05:25:33;;;;;;;22.65;14.45;;;;;;;;;;6133882;23;20165;-88
2022/07/22 05:28:38;;;;;;;21.67;14.70;;;;;;;;;;6113992;23;20196;-88
2022/07/22 05:31:45;;;;;;;22.77;15.25;;;;;;;;;;6131895;23;20177;-88
2022/07/22 05:34:50;;;;;;;26.40;14.85;;;;;;;;;;6133395;23;20237;-88
2022/07/22 05:37:56;;;;;;;23.23;14.25;;;;;;;;;;6135392;23;20173;-88
2022/07/22 05:41:02;;;;;;;26.90;15.45;;;;;;;;;;6121695;23;20204;-89
2022/07/22 05:44:35;;;;;;;27.25;16.15;;;;;;;;;;6136440;23;20208;-89
2022/07/22 05:47:43;;;;;;;25.42;16.40;;;;;;;;;;6136668;23;20205;-89
2022/07/22 05:50:51;;;;;;;21.25;15.13;;;;;;;;;;6136877;23;20193;-90
2022/07/22 05:53:59;;;;;;;23.23;15.50;;;;;;;;;;6120362;23;20189;-88
2022/07/22 05:57:08;;;;;;;27.52;15.30;;;;;;;;;;6134102;23;20220;-88
2022/07/22 06:00:14;;;;;;;24.52;15.68;;;;;;;;;;6136140;23;20232;-88
2022/07/22 06:03:31;;;;;;;27.50;15.88;;;;;;;;;;6136851;23;20177;-89
2022/07/22 06:06:45;;;;;;;24.88;15.75;;;;;;;;;;6144508;23;20292;-90
2022/07/22 17:24:04;;;;;;;8.10;5.75;;;;;;;;;;6219334;22;20230;-90
2022/07/22 17:27:10;;;;;;;11.85;7.18;;;;;;;;;;6307145;22;20640;-90
2022/07/22 17:30:16;;;;;;;11.52;6.60;;;;;;;;;;6309917;22;20211;-90
2022/07/22 17:33:22;;;;;;;9.85;6.53;;;;;;;;;;6309993;22;20196;-91
2022/07/22 22:21:08;;;;;;;18.98;11.27;;;;;;;;;;6162116;22;20371;-87
2022/07/22 22:24:15;;;;;;;18.10;12.05;;;;;;;;;;6309050;22;20266;-89
2022/07/22 22:27:21;;;;;;;19.35;12.75;;;;;;;;;;6327536;22;20212;-91
2022/07/22 22:30:27;;;;;;;19.65;12.70;;;;;;;;;;6310854;22;20160;-89
2022/07/22 22:33:32;;;;;;;19.00;12.10;;;;;;;;;;6314722;22;20170;-87
2022/07/22 22:39:39;;;;;;;16.60;10.57;;;;;;;;;;6214264;22;20209;-89
2022/07/22 22:42:46;;;;;;;20.13;10.75;;;;;;;;;;6321259;22;20223;-91
2022/07/22 22:45:55;;;;;;;20.15;11.00;;;;;;;;;;6303547;22;20173;-88
2022/07/22 22:49:00;;;;;;;16.95;11.70;;;;;;;;;;6325388;22;20195;-89
2022/07/22 22:59:21;;;;;;;20.05;12.05;;;;;;;;;;6312373;22;20199;-90
2022/07/22 23:02:29;;;;;;;18.98;11.57;;;;;;;;;;6312472;22;20177;-89
2022/07/22 23:05:35;;;;;;;22.13;11.52;;;;;;;;;;6311160;22;20169;-90
2022/07/22 23:12:01;;;;;;;21.88;11.55;;;;;;;;;;6329969;22;20162;-89
2022/07/22 23:15:07;;;;;;;26.55;11.32;;;;;;;;;;6311869;22;20161;-90
2022/07/22 23:18:22;;;;;;;18.92;11.45;;;;;;;;;;6312770;22;20193;-88
2022/07/22 23:21:29;;;;;;;16.92;11.65;;;;;;;;;;6311269;22;20169;-88
2022/07/22 23:24:34;;;;;;;18.02;11.73;;;;;;;;;;6303429;22;20157;-90
2022/07/22 23:27:42;;;;;;;21.48;12.32;;;;;;;;;;6304035;22;20220;-90
2022/07/22 23:30:47;;;;;;;19.52;11.55;;;;;;;;;;6305236;22;20722;-91
2022/07/22 23:33:53;;;;;;;19.48;11.73;;;;;;;;;;6306086;22;20164;-89
2022/07/22 23:36:59;;;;;;;20.27;11.80;;;;;;;;;;6304324;22;20162;-91
2022/07/22 23:40:04;;;;;;;17.73;11.85;;;;;;;;;;6321584;22;20200;-90
2022/07/22 23:43:10;;;;;;;20.23;12.27;;;;;;;;;;6302233;22;20176;-90
2022/07/22 23:46:19;;;;;;;17.83;11.98;;;;;;;;;;6322252;22;20165;-90
2022/07/22 23:49:26;;;;;;;17.83;11.32;;;;;;;;;;6302692;22;20169;-91
2022/07/22 23:52:31;;;;;;;17.05;11.90;;;;;;;;;;6303052;22;20177;-90
2022/07/22 23:55:36;;;;;;;18.92;12.00;;;;;;;;;;6321094;22;20178;-90
2022/07/22 23:58:42;;;;;;;20.33;12.07;;;;;;;;;;6319910;22;20185;-90
